Time;durP1;ratioP1;P1;durP2;ratioP2;P2;SDS_P1;SDS_P2;PMS_P1;PMS_P2;Temp;Humidity;BMP_temperature;BMP_pressure;BME280_temperature;BME280_humidity;BME280_pressure;Samples;Min_cycle;Max_cycle;Signal;HPM_P1;HPM_P2
2022/01/13 00:00:30;;;;;;;64.50;22.05;;;5.50;87.10;;;;;;5013885;28;20022;-29
2022/01/13 00:02:56;;;;;;;55.53;24.35;;;5.50;86.90;;;;;;5014497;28;20034;-30
2022/01/13 00:05:27;;;;;;;66.28;23.17;;;5.50;86.80;;;;;;5014341;28;20040;-29
2022/01/13 00:07:55;;;;;;;57.42;22.33;;;5.40;87.00;;;;;;5014372;28;20029;-29
2022/01/13 00:10:22;;;;;;;59.47;23.67;;;5.40;87.10;;;;;;5014379;28;20071;-29
2022/01/13 00:12:55;;;;;;;53.60;20.80;;;5.40;87.00;;;;;;5014190;28;20041;-29
2022/01/13 00:15:25;;;;;;;57.03;23.15;;;5.30;87.00;;;;;;5014172;28;20114;-30
2022/01/13 00:23:39;;;;;;;50.72;22.45;;;5.10;87.20;;;;;;5014402;28;20429;-29
2022/01/13 00:25:34;;;;;;;51.67;21.02;;;5.10;87.40;;;;;;5014369;28;20100;-28
2022/01/13 00:28:05;;;;;;;52.03;22.25;;;5.10;87.50;;;;;;5014294;28;20029;-30
2022/01/13 00:30:31;;;;;;;60.70;21.13;;;5.20;87.50;;;;;;5014242;28;20526;-30
2022/01/13 00:32:57;;;;;;;55.13;21.60;;;5.20;87.50;;;;;;5013934;28;20508;-28
2022/01/13 00:35:22;;;;;;;51.97;21.60;;;5.20;87.50;;;;;;5013779;28;20042;-30
2022/01/13 00:37:48;;;;;;;75.40;22.25;;;5.20;87.50;;;;;;5013871;28;20100;-29
2022/01/13 00:40:14;;;;;;;53.88;20.77;;;5.20;87.40;;;;;;5013780;28;20045;-29
2022/01/13 00:42:40;;;;;;;63.05;21.25;;;5.20;87.40;;;;;;5013716;28;20022;-28
2022/01/13 00:45:08;;;;;;;45.85;18.58;;;5.30;87.50;;;;;;5013895;28;20026;-32
2022/01/13 00:47:36;;;;;;;47.40;20.13;;;5.30;87.50;;;;;;5013730;28;20033;-33
2022/01/13 00:50:02;;;;;;;54.55;19.27;;;5.30;87.50;;;;;;5013575;28;20026;-31
2022/01/13 00:52:28;;;;;;;52.83;18.83;;;5.40;87.50;;;;;;5012261;28;20059;-30
2022/01/13 00:54:53;;;;;;;52.83;18.60;;;5.40;87.40;;;;;;5013581;28;20382;-30
2022/01/13 00:57:19;;;;;;;53.17;20.58;;;5.40;87.30;;;;;;5013787;28;20037;-31
2022/01/13 00:59:45;;;;;;;76.60;21.83;;;5.40;87.30;;;;;;5013567;28;20033;-31
2022/01/13 01:02:10;;;;;;;84.30;23.23;;;5.40;87.20;;;;;;5013498;28;20030;-29
2022/01/13 01:04:36;;;;;;;61.33;21.92;;;5.30;87.10;;;;;;5013514;28;20096;-31
2022/01/13 01:07:02;;;;;;;67.57;20.17;;;5.30;87.30;;;;;;5012203;28;20072;-29
2022/01/13 01:09:50;;;;;;;59.60;20.80;;;5.30;87.50;;;;;;5013382;28;20022;-30
2022/01/13 01:12:14;;;;;;;109.60;24.92;;;5.30;87.50;;;;;;5011996;28;20080;-31
2022/01/13 01:14:46;;;;;;;61.40;21.45;;;5.30;87.40;;;;;;5013328;28;20022;-30
2022/01/13 01:17:15;;;;;;;63.67;20.75;;;5.30;87.40;;;;;;5013223;28;20018;-29
2022/01/13 01:19:43;;;;;;;58.25;20.77;;;5.30;87.50;;;;;;5013313;28;20538;-31
2022/01/13 01:25:01;;;;;;;66.60;22.65;;;5.40;87.50;;;;;;5013517;28;20044;-31
2022/01/13 01:27:33;;;;;;;124.50;26.20;;;5.30;87.40;;;;;;5013420;28;20037;-29
2022/01/13 01:30:07;;;;;;;66.50;22.23;;;5.30;87.30;;;;;;5013441;28;20022;-30
2022/01/13 01:32:34;;;;;;;82.90;24.08;;;5.30;87.30;;;;;;5028152;28;20470;-30
2022/01/13 01:35:03;;;;;;;58.30;21.27;;;5.20;87.50;;;;;;5013101;28;20045;-29
2022/01/13 01:37:30;;;;;;;59.72;21.45;;;5.20;87.60;;;;;;5013298;28;20098;-31
2022/01/13 01:39:58;;;;;;;70.15;23.08;;;5.20;87.90;;;;;;5013099;28;20014;-31
2022/01/13 01:42:25;;;;;;;52.38;20.83;;;5.20;87.70;;;;;;5013288;28;20018;-29
2022/01/13 01:44:54;;;;;;;65.80;20.80;;;5.10;87.70;;;;;;5012992;28;20371;-31
2022/01/13 01:47:22;;;;;;;61.70;19.73;;;5.10;87.90;;;;;;5013045;28;20428;-32
2022/01/13 01:49:52;;;;;;;55.47;20.23;;;5.10;87.80;;;;;;5013242;28;20382;-30
2022/01/13 01:52:19;;;;;;;52.13;18.88;;;5.10;87.90;;;;;;5013108;28;20473;-29
2022/01/13 01:54:46;;;;;;;77.95;20.55;;;5.10;87.90;;;;;;5013234;28;20026;-29
2022/01/13 01:57:13;;;;;;;49.92;19.95;;;5.20;87.90;;;;;;5011608;28;20033;-30
2022/01/13 01:59:41;;;;;;;75.60;21.83;;;5.10;87.80;;;;;;5011643;28;20030;-31
2022/01/13 02:02:08;;;;;;;51.72;18.15;;;5.10;88.50;;;;;;5011513;28;20034;-30
2022/01/13 02:04:34;;;;;;;60.08;17.58;;;5.10;88.10;;;;;;5012905;28;20018;-30
2022/01/13 02:07:04;;;;;;;43.80;16.90;;;5.10;88.20;;;;;;5011646;28;20031;-30
2022/01/13 02:09:30;;;;;;;66.60;19.20;;;5.10;88.20;;;;;;5011853;28;20421;-32
2022/01/13 02:12:00;;;;;;;69.57;17.60;;;5.10;88.20;;;;;;5012701;28;20018;-33
2022/01/13 02:16:52;;;;;;;46.83;18.00;;;5.20;88.00;;;;;;5012993;28;20066;-31
2022/01/13 02:19:19;;;;;;;49.65;16.98;;;5.10;88.00;;;;;;5012724;28;20022;-40
2022/01/13 02:21:45;;;;;;;46.67;16.45;;;5.10;88.10;;;;;;5012508;28;20478;-31
2022/01/13 02:24:11;;;;;;;58.35;16.95;;;5.10;88.10;;;;;;5015639;28;20045;-30
2022/01/13 02:26:37;;;;;;;50.15;17.80;;;5.10;88.20;;;;;;5016191;28;20504;-29
2022/01/13 02:29:03;;;;;;;59.63;17.80;;;5.10;88.20;;;;;;5016194;28;20030;-31
2022/01/13 02:31:29;;;;;;;50.08;16.75;;;5.10;88.30;;;;;;5016042;28;20026;-30
2022/01/13 02:33:55;;;;;;;63.90;18.23;;;5.10;88.40;;;;;;5015923;28;20048;-29
2022/01/13 02:36:22;;;;;;;55.60;18.20;;;5.10;88.40;;;;;;5016047;28;20073;-28
2022/01/13 02:38:53;;;;;;;56.97;16.25;;;5.00;88.30;;;;;;5016266;28;20481;-29
2022/01/13 02:41:22;;;;;;;94.18;19.17;;;5.00;88.50;;;;;;5015994;28;20026;-30
2022/01/13 02:43:48;;;;;;;102.53;19.33;;;5.00;88.60;;;;;;5016170;28;20389;-29
2022/01/13 02:49:07;;;;;;;84.45;17.60;;;5.00;88.70;;;;;;5016060;28;20121;-30
2022/01/13 02:51:33;;;;;;;50.17;16.65;;;5.00;88.80;;;;;;5015678;28;20022;-28
2022/01/13 02:53:59;;;;;;;41.50;15.80;;;5.00;88.80;;;;;;5015805;28;20063;-28
2022/01/13 02:56:26;;;;;;;42.08;14.98;;;5.00;88.90;;;;;;5015909;28;20470;-28
2022/01/13 02:58:51;;;;;;;47.53;14.70;;;5.10;88.90;;;;;;5015953;28;20033;-29
2022/01/13 03:01:17;;;;;;;55.85;15.90;;;5.20;88.80;;;;;;5015586;28;20029;-29
2022/01/13 03:03:44;;;;;;;40.63;14.48;;;5.20;88.80;;;;;;5015650;28;20029;-29
2022/01/13 03:06:15;;;;;;;54.63;14.77;;;5.20;88.60;;;;;;5015460;28;20022;-30
2022/01/13 03:08:46;;;;;;;37.42;13.52;;;5.30;88.60;;;;;;5015458;28;20029;-29
2022/01/13 03:11:13;;;;;;;33.90;13.43;;;5.30;88.60;;;;;;5015577;28;20163;-29
2022/01/13 03:13:39;;;;;;;39.15;13.90;;;5.30;88.60;;;;;;5015315;28;20018;-29
2022/01/13 03:16:13;;;;;;;40.25;13.27;;;5.30;89.20;;;;;;5015426;28;20018;-31
2022/01/13 03:18:39;;;;;;;46.25;13.60;;;5.30;88.60;;;;;;5015365;28;20029;-30
2022/01/13 03:21:06;;;;;;;34.97;12.13;;;5.30;88.60;;;;;;5015274;28;20030;-34
2022/01/13 03:23:33;;;;;;;45.70;12.60;;;5.30;88.60;;;;;;5015309;28;20504;-30
2022/01/13 03:25:59;;;;;;;44.50;13.00;;;5.40;88.60;;;;;;5015290;28;20051;-29
2022/01/13 03:28:30;;;;;;;43.58;13.60;;;5.40;88.50;;;;;;5015350;28;20119;-29
2022/01/13 03:30:57;;;;;;;32.38;12.32;;;5.40;88.40;;;;;;5014998;28;20022;-29
2022/01/13 03:33:23;;;;;;;41.33;12.18;;;5.40;88.50;;;;;;5014973;28;20029;-33
2022/01/13 03:35:49;;;;;;;33.70;12.32;;;5.40;88.50;;;;;;5013868;28;20048;-33
2022/01/13 03:38:15;;;;;;;36.90;13.85;;;5.40;88.50;;;;;;5014962;28;20104;-31
2022/01/13 03:40:41;;;;;;;42.75;12.57;;;5.30;88.50;;;;;;5015122;28;20377;-29
2022/01/13 03:43:07;;;;;;;46.95;12.60;;;5.30;88.40;;;;;;5014685;28;20485;-30
2022/01/13 03:45:33;;;;;;;43.67;12.10;;;5.30;89.10;;;;;;5014760;28;20050;-28
2022/01/13 03:48:00;;;;;;;75.63;14.55;;;5.30;88.40;;;;;;5014775;28;20417;-31
2022/01/13 03:50:25;;;;;;;32.10;12.25;;;5.30;88.40;;;;;;5014654;28;20069;-30
2022/01/13 03:52:57;;;;;;;32.33;12.43;;;5.30;88.50;;;;;;5014532;28;20038;-29
2022/01/13 03:55:35;;;;;;;29.42;11.32;;;5.30;88.60;;;;;;5014847;28;20037;-29
2022/01/13 03:58:38;;;;;;;42.95;12.35;;;5.30;88.60;;;;;;5014807;28;20030;-31
2022/01/13 04:01:23;;;;;;;34.65;13.13;;;5.30;88.60;;;;;;5014398;28;20022;-28
2022/01/13 04:03:49;;;;;;;52.67;12.65;;;5.30;88.60;;;;;;5014583;28;20034;-29
2022/01/13 04:06:14;;;;;;;30.05;12.40;;;5.20;88.40;;;;;;5014373;28;20036;-28
2022/01/13 04:08:40;;;;;;;34.45;11.52;;;5.30;88.50;;;;;;5014356;28;20113;-29
2022/01/13 04:11:06;;;;;;;45.92;12.15;;;5.30;88.60;;;;;;5014305;28;20482;-28
2022/01/13 04:13:55;;;;;;;52.35;13.07;;;5.30;88.60;;;;;;5014269;28;20105;-29
2022/01/13 04:16:27;;;;;;;32.15;12.77;;;5.30;88.50;;;;;;5014429;28;20025;-29
2022/01/13 04:18:55;;;;;;;35.17;12.57;;;5.20;88.40;;;;;;5014122;28;20032;-28
2022/01/13 04:21:22;;;;;;;34.97;11.98;;;5.20;88.60;;;;;;5014324;28;20026;-29
2022/01/13 04:23:48;;;;;;;38.95;11.95;;;5.20;88.60;;;;;;5014112;28;20390;-28
2022/01/13 04:26:18;;;;;;;33.83;11.77;;;5.20;88.60;;;;;;5012775;28;20026;-29
2022/01/13 04:28:45;;;;;;;55.45;12.13;;;5.20;88.60;;;;;;5012668;28;20394;-34
2022/01/13 04:31:11;;;;;;;41.63;12.13;;;5.20;88.60;;;;;;5014099;28;20026;-30
2022/01/13 04:33:37;;;;;;;44.08;13.30;;;5.20;88.60;;;;;;5014096;28;20049;-29
2022/01/13 04:36:05;;;;;;;49.35;13.38;;;5.20;88.60;;;;;;5013833;28;20054;-29
2022/01/13 04:38:31;;;;;;;52.75;12.93;;;5.20;88.60;;;;;;5012620;28;20474;-30
2022/01/13 04:40:59;;;;;;;39.30;12.75;;;5.20;88.60;;;;;;5013809;28;20029;-29
2022/01/13 04:43:28;;;;;;;55.33;14.25;;;5.10;88.60;;;;;;5014064;28;20156;-32
2022/01/13 04:45:53;;;;;;;45.85;12.73;;;5.10;88.60;;;;;;5013583;28;20022;-35
2022/01/13 04:48:19;;;;;;;48.50;13.50;;;5.10;88.60;;;;;;5028796;28;20022;-34
2022/01/13 04:50:46;;;;;;;67.25;13.23;;;5.10;88.60;;;;;;5013651;28;20026;-31
2022/01/13 04:53:12;;;;;;;54.00;14.15;;;5.10;88.60;;;;;;5013675;28;20104;-30
2022/01/13 04:55:39;;;;;;;74.75;13.77;;;5.00;88.70;;;;;;5012284;28;20527;-30
2022/01/13 04:58:06;;;;;;;46.55;12.85;;;5.00;88.60;;;;;;5013864;28;20117;-29
2022/01/13 05:00:32;;;;;;;50.47;12.88;;;5.00;88.60;;;;;;5013577;28;20469;-33
2022/01/13 05:02:58;;;;;;;42.75;12.73;;;5.00;88.70;;;;;;5013389;28;20042;-29
2022/01/13 05:05:24;;;;;;;79.30;15.48;;;5.00;88.60;;;;;;5013398;28;20080;-29
2022/01/13 05:07:50;;;;;;;75.25;15.18;;;5.00;88.80;;;;;;5013488;28;20104;-31
2022/01/13 05:10:16;;;;;;;73.63;14.02;;;4.90;88.80;;;;;;5013386;28;20080;-31
2022/01/13 05:12:44;;;;;;;49.20;13.40;;;4.90;88.70;;;;;;5013320;28;20034;-30
2022/01/13 05:15:20;;;;;;;55.00;15.48;;;4.90;88.70;;;;;;5013508;28;20033;-29
2022/01/13 05:20:26;;;;;;;40.65;12.95;;;4.80;88.90;;;;;;5013269;28;20022;-30
2022/01/13 05:22:52;;;;;;;64.88;14.65;;;4.80;89.00;;;;;;5028445;28;20026;-31
2022/01/13 05:25:19;;;;;;;35.58;12.63;;;4.90;89.10;;;;;;5011887;28;20128;-29
2022/01/13 05:27:45;;;;;;;37.78;11.52;;;4.90;88.90;;;;;;5013222;28;20425;-29
2022/01/13 05:30:12;;;;;;;43.38;12.38;;;4.90;89.00;;;;;;5013505;28;20061;-29
2022/01/13 05:32:38;;;;;;;38.15;12.48;;;4.90;89.00;;;;;;5013039;28;20025;-29
2022/01/13 05:35:05;;;;;;;46.65;12.55;;;4.90;89.60;;;;;;5013091;28;20124;-30
2022/01/13 05:37:30;;;;;;;30.38;12.02;;;4.90;89.00;;;;;;5013143;28;20478;-30
2022/01/13 05:39:57;;;;;;;40.20;11.73;;;4.90;89.00;;;;;;5013361;28;20165;-30
2022/01/13 05:42:23;;;;;;;38.45;12.02;;;5.00;89.00;;;;;;5013334;28;20408;-29
2022/01/13 05:44:49;;;;;;;34.83;11.20;;;5.00;88.90;;;;;;5013047;28;20117;-30
2022/01/13 05:47:15;;;;;;;48.92;12.27;;;5.00;88.90;;;;;;5013229;28;20466;-29
2022/01/13 05:49:42;;;;;;;24.95;11.55;;;5.00;88.80;;;;;;5012960;28;20029;-30
2022/01/13 05:52:13;;;;;;;39.58;11.82;;;5.00;88.90;;;;;;5012840;28;20076;-32
2022/01/13 05:54:39;;;;;;;42.00;11.65;;;5.00;88.80;;;;;;5011799;28;20482;-29
2022/01/13 05:57:05;;;;;;;26.65;11.18;;;5.00;88.80;;;;;;5013149;28;20033;-30
2022/01/13 05:59:31;;;;;;;31.30;11.30;;;5.00;88.80;;;;;;5016629;28;20097;-30
2022/01/13 06:01:58;;;;;;;32.72;11.48;;;5.00;88.80;;;;;;5016810;28;20061;-29
2022/01/13 06:04:24;;;;;;;32.17;11.10;;;5.10;88.90;;;;;;5016745;28;20030;-31
2022/01/13 06:06:50;;;;;;;39.33;12.02;;;5.10;88.80;;;;;;5016596;28;20088;-29
2022/01/13 06:09:15;;;;;;;31.20;12.18;;;5.10;88.80;;;;;;5016568;28;20096;-29
2022/01/13 06:11:50;;;;;;;28.25;10.98;;;5.00;88.80;;;;;;5016584;28;20116;-31
2022/01/13 06:14:16;;;;;;;33.45;10.20;;;5.00;88.80;;;;;;5016757;28;20029;-29
2022/01/13 06:16:41;;;;;;;34.33;11.90;;;5.00;88.80;;;;;;5016426;28;20113;-30
2022/01/13 06:19:07;;;;;;;30.77;11.60;;;5.00;88.80;;;;;;5016378;28;20075;-28
2022/01/13 06:21:33;;;;;;;27.85;11.27;;;5.00;88.70;;;;;;5016650;28;20050;-30
2022/01/13 06:23:58;;;;;;;31.50;10.80;;;5.00;88.90;;;;;;5016325;28;20580;-29
2022/01/13 06:26:24;;;;;;;30.58;10.68;;;5.10;88.90;;;;;;5016145;28;20034;-30
2022/01/13 06:28:49;;;;;;;29.92;11.32;;;5.00;88.80;;;;;;5016475;28;20037;-29
2022/01/13 06:31:15;;;;;;;31.20;10.88;;;5.00;88.80;;;;;;5016026;28;20022;-31
2022/01/13 06:33:41;;;;;;;21.90;10.02;;;5.00;88.80;;;;;;5015826;28;20025;-32
2022/01/13 06:36:07;;;;;;;38.97;11.35;;;5.00;88.80;;;;;;5016077;28;20038;-29
2022/01/13 06:38:33;;;;;;;34.03;10.75;;;5.00;88.80;;;;;;5016215;28;20107;-29
2022/01/13 06:41:00;;;;;;;27.85;10.32;;;5.00;88.80;;;;;;5016029;28;20026;-29
2022/01/13 06:43:26;;;;;;;22.55;9.85;;;5.00;88.80;;;;;;5016179;28;20102;-31
2022/01/13 06:45:52;;;;;;;33.83;10.65;;;5.00;88.80;;;;;;5015902;28;20176;-31
2022/01/13 06:48:17;;;;;;;23.17;10.27;;;5.00;88.80;;;;;;5015868;28;20018;-30
2022/01/13 06:50:43;;;;;;;26.67;10.27;;;5.00;89.40;;;;;;5014677;28;20028;-35
2022/01/13 06:53:08;;;;;;;65.53;13.55;;;5.00;88.80;;;;;;5015641;28;20081;-29
2022/01/13 06:55:35;;;;;;;49.47;12.80;;;4.90;88.70;;;;;;5015988;28;20018;-31
2022/01/13 06:58:00;;;;;;;33.22;11.43;;;4.80;88.60;;;;;;5015681;28;20113;-29
2022/01/13 07:00:26;;;;;;;38.75;11.98;;;4.70;88.70;;;;;;5015801;28;20061;-28
2022/01/13 07:02:54;;;;;;;35.45;12.43;;;4.70;88.90;;;;;;5015546;28;20081;-29
2022/01/13 07:05:20;;;;;;;53.35;13.02;;;4.60;88.90;;;;;;5015728;28;20018;-29
2022/01/13 07:07:46;;;;;;;44.13;13.20;;;4.60;89.00;;;;;;5015548;28;20049;-29
2022/01/13 07:10:12;;;;;;;38.78;12.85;;;4.60;89.20;;;;;;5015373;28;20026;-31
2022/01/13 07:12:40;;;;;;;30.20;11.27;;;4.60;89.30;;;;;;5015165;28;20026;-29
2022/01/13 07:15:07;;;;;;;27.88;10.90;;;4.60;89.30;;;;;;5014954;28;20018;-33
2022/01/13 07:17:33;;;;;;;22.73;11.10;;;4.60;89.40;;;;;;5015208;28;20029;-28
2022/01/13 07:19:59;;;;;;;55.85;13.57;;;4.60;89.50;;;;;;5015306;28;20101;-29
2022/01/13 07:22:24;;;;;;;31.30;11.88;;;4.70;89.40;;;;;;5014013;28;20537;-28
2022/01/13 07:24:50;;;;;;;31.70;11.25;;;4.60;89.30;;;;;;5015196;28;20101;-30
2022/01/13 07:27:16;;;;;;;30.50;11.23;;;4.60;89.50;;;;;;5015185;28;20060;-29
2022/01/13 07:29:44;;;;;;;27.30;10.98;;;4.60;90.00;;;;;;5015155;28;20014;-30
2022/01/13 07:32:11;;;;;;;39.67;11.30;;;4.60;89.50;;;;;;5014765;28;20026;-29
2022/01/13 07:34:36;;;;;;;32.03;11.25;;;4.60;89.50;;;;;;5014773;28;20431;-28
2022/01/13 07:37:02;;;;;;;54.30;12.90;;;4.60;89.50;;;;;;5014883;28;20018;-28
2022/01/13 07:39:28;;;;;;;35.58;12.85;;;4.70;89.50;;;;;;5014781;28;20049;-32
2022/01/13 07:41:54;;;;;;;39.70;12.25;;;4.70;89.50;;;;;;5015051;28;20326;-32
2022/01/13 07:44:19;;;;;;;43.28;12.23;;;4.70;89.50;;;;;;5014700;28;20022;-31
2022/01/13 07:46:45;;;;;;;71.43;14.10;;;4.70;89.60;;;;;;5014741;28;20026;-29
2022/01/13 07:49:11;;;;;;;31.88;11.32;;;4.70;89.70;;;;;;5014786;28;20108;-31
2022/01/13 07:51:36;;;;;;;31.35;10.77;;;4.70;89.80;;;;;;5014573;28;20030;-31
2022/01/13 07:54:03;;;;;;;29.45;10.85;;;4.80;89.90;;;;;;5014751;28;20026;-33
2022/01/13 07:56:28;;;;;;;40.33;10.98;;;4.90;89.80;;;;;;5013396;28;20022;-28
2022/01/13 07:58:55;;;;;;;44.58;11.07;;;4.90;89.60;;;;;;5029672;28;20335;-29
2022/01/13 08:01:21;;;;;;;41.55;11.35;;;5.00;89.40;;;;;;5013110;28;20017;-31
2022/01/13 08:03:47;;;;;;;36.45;11.82;;;4.90;89.30;;;;;;5013083;28;20366;-30
2022/01/13 08:06:13;;;;;;;206.70;18.40;;;4.90;89.40;;;;;;5014303;28;20486;-29
2022/01/13 08:08:39;;;;;;;48.50;13.57;;;4.90;89.50;;;;;;5014206;28;20026;-28
2022/01/13 08:11:07;;;;;;;44.10;13.10;;;4.90;89.80;;;;;;5014463;28;20029;-30
2022/01/13 08:13:34;;;;;;;48.22;11.88;;;4.90;89.80;;;;;;5014190;28;20022;-33
2022/01/13 08:16:02;;;;;;;36.90;11.20;;;4.90;89.60;;;;;;5014380;28;20477;-30
2022/01/13 08:21:12;;;;;;;24.90;9.85;;;4.80;89.80;;;;;;5013903;28;20455;-29
2022/01/13 08:23:39;;;;;;;35.13;10.05;;;4.80;89.80;;;;;;5014324;28;20046;-30
2022/01/13 08:26:05;;;;;;;50.35;10.93;;;4.80;89.80;;;;;;5014230;28;20470;-35
2022/01/13 08:28:31;;;;;;;25.10;9.35;;;4.80;89.70;;;;;;5013965;28;20032;-34
2022/01/13 08:30:57;;;;;;;28.13;9.40;;;4.80;89.80;;;;;;5014185;28;20470;-32
2022/01/13 08:33:23;;;;;;;51.25;11.02;;;4.80;89.90;;;;;;5013758;28;20029;-31
2022/01/13 08:35:53;;;;;;;33.33;10.23;;;4.80;89.90;;;;;;5013717;28;20037;-29
2022/01/13 08:38:20;;;;;;;53.67;11.07;;;4.80;89.70;;;;;;5013866;28;20390;-29
2022/01/13 08:40:48;;;;;;;39.88;10.70;;;4.70;89.80;;;;;;5014028;28;20359;-29
2022/01/13 08:43:15;;;;;;;29.27;9.82;;;4.70;89.90;;;;;;5013679;28;20022;-30
2022/01/13 08:45:42;;;;;;;45.63;10.75;;;4.60;89.90;;;;;;5013803;28;20048;-30
2022/01/13 08:48:08;;;;;;;33.47;9.80;;;4.60;90.00;;;;;;5013642;28;20035;-30
2022/01/13 08:50:34;;;;;;;18.80;9.00;;;4.60;90.00;;;;;;5013945;28;20382;-29
2022/01/13 08:52:59;;;;;;;45.25;10.43;;;4.70;90.00;;;;;;5028563;28;20034;-31
2022/01/13 08:55:25;;;;;;;44.17;11.07;;;4.70;90.00;;;;;;5013375;28;20022;-30
2022/01/13 08:57:52;;;;;;;30.55;10.50;;;4.70;90.00;;;;;;5013472;28;20429;-31
2022/01/13 09:00:17;;;;;;;27.38;10.65;;;4.70;90.00;;;;;;5012131;28;20053;-30
2022/01/13 09:02:44;;;;;;;29.20;10.10;;;4.70;90.00;;;;;;5013434;28;20517;-30
2022/01/13 09:05:12;;;;;;;25.15;9.27;;;4.60;90.00;;;;;;5013233;28;20109;-29
2022/01/13 09:07:38;;;;;;;36.58;9.93;;;4.70;90.10;;;;;;5013299;28;20121;-31
2022/01/13 09:10:05;;;;;;;29.90;9.65;;;4.60;90.00;;;;;;5013415;28;20096;-29
2022/01/13 09:12:31;;;;;;;24.88;10.48;;;4.60;90.00;;;;;;5013208;28;20037;-30
2022/01/13 09:15:13;;;;;;;25.60;8.93;;;4.60;90.00;;;;;;5013497;28;20018;-32
2022/01/13 09:17:40;;;;;;;18.30;8.48;;;4.60;90.10;;;;;;5013489;28;20028;-29
2022/01/13 09:20:06;;;;;;;20.75;8.77;;;4.60;90.10;;;;;;5013301;28;20020;-29
2022/01/13 09:22:31;;;;;;;24.83;8.40;;;4.70;90.20;;;;;;5013343;28;20512;-32
2022/01/13 09:24:57;;;;;;;54.03;9.70;;;4.70;90.10;;;;;;5013067;28;20022;-35
2022/01/13 09:27:23;;;;;;;32.90;9.10;;;4.80;90.00;;;;;;5013356;28;20026;-32
2022/01/13 09:29:48;;;;;;;37.97;9.55;;;4.80;90.00;;;;;;5013054;28;20052;-35
2022/01/13 09:32:14;;;;;;;31.40;8.43;;;4.80;90.00;;;;;;5028148;28;20377;-33
2022/01/13 09:34:41;;;;;;;35.20;9.68;;;4.80;90.00;;;;;;5016946;28;20041;-31
2022/01/13 09:37:07;;;;;;;23.63;8.60;;;4.70;90.00;;;;;;5016949;28;20025;-31
2022/01/13 09:39:33;;;;;;;19.02;8.40;;;4.60;90.00;;;;;;5017065;28;20029;-29
2022/01/13 09:42:01;;;;;;;20.42;9.23;;;4.60;90.00;;;;;;5016965;28;20041;-29
2022/01/13 09:44:28;;;;;;;39.28;9.52;;;4.60;90.10;;;;;;5017007;28;20030;-30
2022/01/13 09:46:54;;;;;;;17.88;9.00;;;4.70;90.10;;;;;;5017222;28;20478;-28
2022/01/13 09:49:19;;;;;;;30.05;9.00;;;4.70;90.10;;;;;;5016941;28;20029;-31
2022/01/13 09:51:45;;;;;;;17.63;7.82;;;4.70;90.00;;;;;;5016692;28;20034;-30
2022/01/13 09:54:12;;;;;;;19.67;7.93;;;4.60;90.10;;;;;;5017137;28;20105;-29
2022/01/13 09:56:38;;;;;;;37.95;10.00;;;4.60;90.10;;;;;;5017174;28;20435;-30
2022/01/13 09:59:05;;;;;;;24.30;8.43;;;4.70;90.10;;;;;;5016749;28;20029;-29
2022/01/13 10:01:31;;;;;;;18.67;7.95;;;4.70;90.10;;;;;;5016677;28;20026;-28
2022/01/13 10:03:56;;;;;;;14.77;8.00;;;4.80;90.10;;;;;;5016592;28;20087;-30
2022/01/13 10:06:22;;;;;;;18.05;8.30;;;4.80;90.10;;;;;;5031781;28;20112;-31
2022/01/13 10:08:56;;;;;;;19.00;8.13;;;4.90;90.10;;;;;;5016850;28;20022;-29
2022/01/13 10:11:40;;;;;;;21.52;7.95;;;4.90;90.10;;;;;;5016346;28;20026;-29
2022/01/13 10:16:47;;;;;;;22.08;8.05;;;5.00;90.00;;;;;;5016423;28;20469;-28
2022/01/13 10:19:36;;;;;;;14.77;8.07;;;5.10;90.00;;;;;;5016382;28;20030;-29
2022/01/13 10:22:33;;;;;;;22.50;8.20;;;5.10;89.90;;;;;;5016589;28;20065;-28
2022/01/13 10:24:59;;;;;;;20.17;8.32;;;5.10;89.90;;;;;;5008228;28;20100;-30
2022/01/13 10:30:55;;;;;;;15.23;7.50;;;5.10;89.90;;;;;;5016331;28;20600;-29
2022/01/13 10:33:29;;;;;;;17.52;7.30;;;5.20;90.00;;;;;;5016207;28;20030;-29
2022/01/13 10:36:09;;;;;;;16.08;7.65;;;5.20;89.90;;;;;;5015997;28;20038;-28
2022/01/13 10:38:57;;;;;;;22.55;8.57;;;5.20;89.80;;;;;;5016261;28;20025;-30
2022/01/13 10:42:02;;;;;;;25.90;9.07;;;5.20;89.70;;;;;;5015996;28;20026;-30
2022/01/13 10:44:24;;;;;;;15.00;7.38;;;5.20;89.60;;;;;;5015500;28;20164;-29
2022/01/13 10:47:00;;;;;;;20.15;8.13;;;5.20;89.80;;;;;;5015855;28;20053;-29
2022/01/13 10:49:38;;;;;;;21.13;8.18;;;5.30;89.80;;;;;;5016214;28;20022;-30
2022/01/13 10:52:16;;;;;;;19.83;8.48;;;5.30;89.70;;;;;;5015970;28;20494;-33
2022/01/13 10:54:41;;;;;;;16.02;7.72;;;5.30;89.70;;;;;;5015645;28;20021;-29
2022/01/13 10:57:24;;;;;;;22.15;8.10;;;5.30;89.70;;;;;;5015702;28;20022;-31
2022/01/13 10:59:50;;;;;;;13.20;7.93;;;5.30;89.70;;;;;;5015938;28;20382;-30
2022/01/13 11:02:19;;;;;;;15.93;8.52;;;5.30;89.70;;;;;;5015648;28;20022;-30
2022/01/13 11:04:45;;;;;;;15.38;8.18;;;5.30;89.70;;;;;;5015623;28;20021;-29
2022/01/13 11:07:16;;;;;;;22.35;8.80;;;5.40;89.80;;;;;;5015522;28;20501;-29
2022/01/13 11:09:50;;;;;;;17.52;8.23;;;5.40;89.70;;;;;;5015926;28;20382;-29
2022/01/13 11:12:16;;;;;;;21.92;8.70;;;5.40;89.50;;;;;;5015416;28;20080;-28
2022/01/13 11:14:43;;;;;;;32.78;9.20;;;5.40;89.50;;;;;;5015346;28;20422;-29
2022/01/13 11:17:11;;;;;;;17.05;8.40;;;5.40;89.50;;;;;;5015292;28;20022;-28
2022/01/13 11:19:44;;;;;;;15.80;8.48;;;5.40;89.50;;;;;;5015577;28;20021;-28
2022/01/13 11:22:11;;;;;;;21.90;8.75;;;5.40;89.50;;;;;;5015501;28;20053;-28
2022/01/13 11:24:38;;;;;;;19.13;8.82;;;5.50;89.50;;;;;;5015344;28;20026;-29
2022/01/13 11:27:05;;;;;;;14.25;8.20;;;5.50;89.60;;;;;;5015166;28;20061;-29
2022/01/13 11:29:31;;;;;;;23.63;7.90;;;5.50;89.50;;;;;;5015132;28;20109;-28
2022/01/13 11:31:57;;;;;;;17.52;8.27;;;5.50;89.40;;;;;;5015166;28;20114;-30
2022/01/13 11:34:24;;;;;;;17.77;8.35;;;5.50;89.30;;;;;;5014801;28;20089;-29
2022/01/13 11:36:50;;;;;;;15.98;8.65;;;5.60;89.40;;;;;;5014850;28;20478;-34
2022/01/13 11:39:16;;;;;;;26.67;9.02;;;5.60;89.40;;;;;;5015071;28;20022;-29
2022/01/13 11:42:04;;;;;;;31.75;10.40;;;5.60;89.40;;;;;;5014799;28;20049;-29
2022/01/13 11:44:30;;;;;;;31.40;9.95;;;5.60;89.30;;;;;;5014526;28;20042;-35
2022/01/13 11:46:56;;;;;;;46.47;11.10;;;5.50;89.20;;;;;;5014650;28;20029;-29
2022/01/13 11:52:13;;;;;;;29.67;10.30;;;5.50;89.50;;;;;;5014682;28;20410;-30
2022/01/13 11:54:40;;;;;;;28.63;11.38;;;5.50;89.40;;;;;;5014673;28;20398;-30
2022/01/13 11:57:19;;;;;;;29.75;10.45;;;5.50;89.40;;;;;;5013875;28;20022;-29
2022/01/13 11:59:57;;;;;;;20.98;10.50;;;5.50;89.40;;;;;;5014510;28;20085;-29
2022/01/13 12:02:26;;;;;;;32.10;10.18;;;5.50;89.40;;;;;;5014652;28;20030;-29
2022/01/13 12:05:04;;;;;;;44.75;10.95;;;5.50;89.30;;;;;;5014280;28;20100;-30
2022/01/13 12:07:38;;;;;;;29.25;10.48;;;5.40;89.30;;;;;;5014278;28;20026;-29
2022/01/13 12:10:06;;;;;;;26.75;9.65;;;5.40;89.20;;;;;;5014499;28;20096;-31
2022/01/13 12:12:33;;;;;;;42.28;10.88;;;5.30;89.40;;;;;;5014120;28;20032;-29
2022/01/13 12:15:18;;;;;;;26.83;10.32;;;5.30;89.50;;;;;;5014452;28;20065;-29
2022/01/13 12:17:50;;;;;;;22.30;10.40;;;5.20;89.50;;;;;;5014205;28;20034;-29
2022/01/13 12:23:43;;;;;;;23.58;9.80;;;5.20;89.70;;;;;;5014344;28;20120;-30
2022/01/13 12:26:32;;;;;;;34.30;11.10;;;5.20;89.70;;;;;;5029086;28;20037;-29
2022/01/13 12:29:21;;;;;;;28.17;10.82;;;5.20;89.60;;;;;;5010309;28;20113;-28
2022/01/13 12:32:16;;;;;;;35.97;11.05;;;5.20;89.60;;;;;;5013782;28;20022;-28
2022/01/13 12:34:45;;;;;;;21.73;9.27;;;5.20;89.70;;;;;;5012987;28;20037;-31
2022/01/13 12:37:11;;;;;;;36.85;9.90;;;5.20;89.70;;;;;;5014150;28;20108;-29
2022/01/13 12:39:49;;;;;;;21.55;8.80;;;5.20;89.70;;;;;;5013798;28;20548;-31
2022/01/13 12:42:17;;;;;;;42.22;10.35;;;5.20;89.70;;;;;;5013717;28;20032;-29
2022/01/13 12:47:29;;;;;;;35.67;9.43;;;5.20;89.70;;;;;;5013509;28;20133;-30
2022/01/13 12:49:55;;;;;;;21.05;8.75;;;5.20;89.80;;;;;;5013555;28;20057;-31
2022/01/13 12:52:27;;;;;;;19.17;9.23;;;5.20;89.80;;;;;;5013553;28;20408;-30
2022/01/13 12:54:54;;;;;;;17.42;8.52;;;5.20;89.80;;;;;;5013479;28;20026;-30
2022/01/13 12:57:22;;;;;;;20.33;8.13;;;5.30;89.80;;;;;;5013562;28;20386;-29
2022/01/13 12:59:53;;;;;;;46.92;10.55;;;5.30;89.80;;;;;;5013729;28;20422;-30
2022/01/13 13:02:19;;;;;;;20.35;8.07;;;5.30;89.60;;;;;;5013399;28;20025;-30
2022/01/13 13:04:46;;;;;;;24.52;9.55;;;5.30;89.60;;;;;;5013493;28;20026;-29
2022/01/13 13:07:12;;;;;;;17.02;9.00;;;5.30;89.60;;;;;;5013322;28;20030;-29
2022/01/13 13:09:37;;;;;;;37.25;9.55;;;5.20;89.70;;;;;;5013448;28;20061;-28
2022/01/13 13:12:08;;;;;;;25.90;8.95;;;5.20;89.70;;;;;;5013277;28;20505;-29
2022/01/13 13:17:29;;;;;;;26.63;8.68;;;5.20;89.60;;;;;;4994227;28;20033;-30
2022/01/13 13:19:54;;;;;;;19.75;8.15;;;5.20;89.70;;;;;;5013249;28;20029;-31